createdAt,value
2019-05-25T00:02:19.131Z,99.90
2019-05-25T00:04:49.864Z,99.90
2019-05-25T00:07:20.398Z,99.90
2019-05-25T00:09:51.198Z,99.90
2019-05-25T00:12:22.624Z,99.90
2019-05-25T00:14:53.202Z,99.90
2019-05-25T00:17:24.013Z,99.90
2019-05-25T00:19:54.637Z,99.90
2019-05-25T00:22:25.500Z,99.90
2019-05-25T00:24:56.410Z,99.90
2019-05-25T00:27:26.985Z,99.90
2019-05-25T00:29:57.743Z,99.90
2019-05-25T00:32:28.546Z,99.90
2019-05-25T00:35:00.373Z,99.90
2019-05-25T00:37:31.463Z,99.90
2019-05-25T00:40:03.555Z,99.90
2019-05-25T00:42:34.097Z,99.90
2019-05-25T00:45:05.403Z,99.90
2019-05-25T00:47:36.283Z,99.90
2019-05-25T00:50:07.589Z,99.90
2019-05-25T00:52:38.351Z,99.90
2019-05-25T00:55:09.652Z,99.90
2019-05-25T00:57:41.769Z,99.90
2019-05-25T01:00:13.400Z,99.90
2019-05-25T01:02:44.172Z,99.90
2019-05-25T01:05:14.928Z,99.90
2019-05-25T01:07:45.561Z,99.90
2019-05-25T01:10:16.624Z,99.90
2019-05-25T01:12:47.224Z,99.90
2019-05-25T01:15:18.192Z,99.90
2019-05-25T01:17:48.919Z,99.90
2019-05-25T01:20:20.510Z,99.90
2019-05-25T01:22:51.248Z,99.90
2019-05-25T01:25:21.993Z,99.90
2019-05-25T01:27:52.739Z,99.90
2019-05-25T01:30:23.390Z,99.90
2019-05-25T01:32:54.466Z,99.90
2019-05-25T01:35:25.218Z,99.90
2019-05-25T01:37:55.976Z,99.90
2019-05-25T01:40:26.995Z,99.90
2019-05-25T01:42:59.142Z,99.90
2019-05-25T01:45:29.985Z,99.90
2019-05-25T01:48:00.532Z,99.90
2019-05-25T01:50:31.176Z,99.90
2019-05-25T01:53:01.860Z,99.90
2019-05-25T01:55:32.390Z,99.90
2019-05-25T01:58:03.166Z,99.90
2019-05-25T02:00:33.987Z,99.90
2019-05-25T02:03:04.844Z,99.90
2019-05-25T02:05:35.561Z,99.90
2019-05-25T02:08:06.219Z,99.90
2019-05-25T02:10:37.103Z,99.90
2019-05-25T02:13:07.577Z,99.90
2019-05-25T02:15:38.397Z,99.90
2019-05-25T02:18:09.238Z,99.90
2019-05-25T02:20:39.706Z,99.90
2019-05-25T02:23:10.305Z,99.90
2019-05-25T02:25:40.970Z,99.90
2019-05-25T02:28:11.809Z,99.90
2019-05-25T02:30:42.415Z,99.90
2019-05-25T02:33:12.896Z,99.90
2019-05-25T02:35:43.764Z,99.90
2019-05-25T02:38:14.801Z,99.90
2019-05-25T02:40:45.304Z,99.90
2019-05-25T02:43:16.234Z,99.90
2019-05-25T02:45:46.946Z,99.90
2019-05-25T02:48:17.714Z,99.90
2019-05-25T02:50:48.451Z,99.90
2019-05-25T02:53:19.767Z,99.90
2019-05-25T02:55:50.570Z,99.90
2019-05-25T02:58:21.439Z,99.90
2019-05-25T03:00:52.561Z,99.90
2019-05-25T03:03:23.652Z,99.90
2019-05-25T03:05:55.119Z,99.90
2019-05-25T03:08:25.642Z,99.90
2019-05-25T03:10:57.403Z,99.90
2019-05-25T03:13:30.355Z,99.90
2019-05-25T03:16:00.953Z,99.90
2019-05-25T03:18:31.681Z,99.90
2019-05-25T03:21:02.491Z,99.90
2019-05-25T03:23:33.154Z,99.90
2019-05-25T03:26:03.847Z,99.90
2019-05-25T03:28:34.332Z,99.90
2019-05-25T03:31:05.094Z,99.90
2019-05-25T03:33:35.826Z,99.90
2019-05-25T03:36:06.392Z,99.90
2019-05-25T03:38:37.110Z,99.90
2019-05-25T03:41:07.772Z,99.90
2019-05-25T03:43:38.450Z,99.90
2019-05-25T03:46:09.055Z,99.90
2019-05-25T03:48:39.729Z,99.90
2019-05-25T03:51:10.397Z,99.90
2019-05-25T03:53:41.114Z,99.90
2019-05-25T03:56:11.766Z,99.90
2019-05-25T03:58:43.859Z,99.90
2019-05-25T04:01:14.329Z,99.90
2019-05-25T04:03:44.930Z,99.90
2019-05-25T04:06:15.471Z,99.90
2019-05-25T04:08:46.129Z,99.90
2019-05-25T04:11:16.766Z,99.90
2019-05-25T04:13:47.648Z,99.90
2019-05-25T04:16:19.815Z,99.90
2019-05-25T04:18:50.645Z,99.90
2019-05-25T04:21:22.382Z,99.90
2019-05-25T04:23:54.191Z,99.90
2019-05-25T04:26:27.604Z,99.90
2019-05-25T04:28:58.796Z,99.80
2019-05-25T04:31:29.509Z,98.50
2019-05-25T04:34:00.755Z,97.40
2019-05-25T04:36:32.257Z,96.50
2019-05-25T04:39:02.747Z,95.70
2019-05-25T04:41:33.525Z,94.70
2019-05-25T04:44:04.797Z,94.40
2019-05-25T04:46:35.755Z,93.40
2019-05-25T04:49:06.629Z,92.40
2019-05-25T04:51:37.487Z,91.00
2019-05-25T04:54:08.164Z,90.50
2019-05-25T04:56:40.199Z,90.00
2019-05-25T04:59:11.113Z,88.40
2019-05-25T05:01:41.633Z,88.30
2019-05-25T05:04:13.414Z,85.30
2019-05-25T05:06:43.937Z,86.30
2019-05-25T05:09:14.746Z,85.90
2019-05-25T05:11:45.518Z,84.60
2019-05-25T05:14:16.373Z,82.10
2019-05-25T05:16:47.589Z,81.10
2019-05-25T05:19:18.432Z,79.00
2019-05-25T05:21:50.005Z,78.50
2019-05-25T05:24:20.820Z,77.70
2019-05-25T05:26:55.876Z,77.00
2019-05-25T05:29:24.782Z,74.90
2019-05-25T05:31:55.757Z,70.20
2019-05-25T05:34:26.515Z,69.30
2019-05-25T05:36:58.660Z,67.30
2019-05-25T05:39:29.880Z,66.00
2019-05-25T05:42:03.228Z,62.70
2019-05-25T05:44:34.540Z,61.90
2019-05-25T05:47:10.338Z,61.50
2019-05-25T05:49:41.095Z,63.50
2019-05-25T05:52:14.180Z,65.10
2019-05-25T05:54:47.119Z,70.80
2019-05-25T05:57:20.475Z,75.70
2019-05-25T05:59:51.173Z,77.50
2019-05-25T06:02:21.875Z,79.20
2019-05-25T06:04:52.977Z,80.50
2019-05-25T06:07:27.237Z,81.10
2019-05-25T06:09:56.177Z,81.80
2019-05-25T06:12:26.772Z,75.70
2019-05-25T06:14:57.571Z,63.20
2019-05-25T06:17:28.472Z,52.80
2019-05-25T06:19:59.231Z,52.30
2019-05-25T06:22:30.030Z,52.40
2019-05-25T06:25:00.666Z,51.50
2019-05-25T06:27:31.555Z,50.90
2019-05-25T06:30:03.992Z,48.00
2019-05-25T06:32:34.961Z,46.90
2019-05-25T06:35:06.336Z,47.00
2019-05-25T06:37:37.758Z,46.20
2019-05-25T06:40:09.955Z,45.90
2019-05-25T06:42:40.736Z,46.00
2019-05-25T06:45:12.252Z,44.80
2019-05-25T06:47:43.400Z,45.30
2019-05-25T06:50:14.589Z,43.70
2019-05-25T06:52:45.522Z,43.90
2019-05-25T06:55:16.646Z,44.20
2019-05-25T06:57:47.188Z,45.30
2019-05-25T07:00:19.694Z,41.90
2019-05-25T07:02:50.435Z,41.10
2019-05-25T07:05:21.394Z,42.40
2019-05-25T07:07:54.526Z,41.20
2019-05-25T07:10:24.634Z,42.10
2019-05-25T07:12:55.400Z,40.40
2019-05-25T07:15:26.200Z,38.80
2019-05-25T07:17:57.166Z,41.40
2019-05-25T07:20:28.059Z,40.20
2019-05-25T07:22:59.914Z,40.10
2019-05-25T07:25:30.722Z,41.60
2019-05-25T07:28:01.877Z,41.60
2019-05-25T07:30:33.501Z,41.80
2019-05-25T07:33:04.401Z,39.80
2019-05-25T07:35:37.249Z,42.10
2019-05-25T07:38:08.463Z,42.40
2019-05-25T07:40:39.362Z,42.40
2019-05-25T07:43:10.235Z,40.50
2019-05-25T07:45:40.885Z,41.10
2019-05-25T07:48:11.450Z,42.60
2019-05-25T07:50:42.203Z,42.00
2019-05-25T07:53:12.822Z,40.80
2019-05-25T07:55:44.661Z,43.40
2019-05-25T07:58:18.535Z,43.10
2019-05-25T08:00:49.448Z,43.10
2019-05-25T08:03:20.514Z,43.60
2019-05-25T08:05:51.862Z,44.20
2019-05-25T08:08:22.519Z,43.70
2019-05-25T08:10:53.309Z,44.70
2019-05-25T08:13:24.118Z,43.10
2019-05-25T08:15:54.968Z,42.60
2019-05-25T08:18:25.802Z,43.40
2019-05-25T08:20:56.450Z,43.80
2019-05-25T08:23:26.944Z,43.20
2019-05-25T08:25:57.580Z,42.40
2019-05-25T08:28:32.729Z,42.70
2019-05-25T08:31:01.567Z,45.50
2019-05-25T08:33:32.482Z,40.70
2019-05-25T08:36:03.573Z,42.30
2019-05-25T08:38:36.038Z,43.90
2019-05-25T08:41:09.283Z,43.50
2019-05-25T08:43:40.341Z,42.70
2019-05-25T08:46:11.498Z,43.10
2019-05-25T08:48:42.307Z,43.60
2019-05-25T08:51:13.294Z,45.00
2019-05-25T08:53:46.597Z,46.10
2019-05-25T08:56:16.265Z,45.60
2019-05-25T08:58:48.616Z,45.70
2019-05-25T09:01:19.819Z,45.40
2019-05-25T09:03:50.522Z,42.90
2019-05-25T09:06:21.351Z,43.90
2019-05-25T09:08:52.071Z,44.60
2019-05-25T09:11:22.965Z,45.30
2019-05-25T09:13:53.948Z,44.10
2019-05-25T09:16:24.604Z,45.10
2019-05-25T09:18:55.787Z,46.80
2019-05-25T09:21:26.575Z,46.40
2019-05-25T09:23:57.167Z,45.70
2019-05-25T09:26:27.980Z,47.50
2019-05-25T09:29:04.642Z,46.50
2019-05-25T09:31:31.380Z,46.80
2019-05-25T09:34:02.342Z,46.30
2019-05-25T09:36:33.294Z,47.40
2019-05-25T09:39:05.389Z,47.60
2019-05-25T09:41:36.499Z,46.90
2019-05-25T09:44:07.636Z,47.20
2019-05-25T09:46:38.695Z,45.30
2019-05-25T09:49:09.716Z,46.00
2019-05-25T09:51:40.483Z,46.70
2019-05-25T09:54:11.705Z,47.30
2019-05-25T09:56:42.324Z,46.70
2019-05-25T09:59:20.054Z,45.90
2019-05-25T10:01:45.757Z,48.00
2019-05-25T10:04:16.903Z,47.40
2019-05-25T10:06:47.669Z,47.70
2019-05-25T10:09:18.557Z,46.40
2019-05-25T10:11:49.411Z,47.50
2019-05-25T10:14:21.122Z,49.40
2019-05-25T10:16:51.754Z,49.00
2019-05-25T10:19:23.071Z,47.00
2019-05-25T10:21:54.183Z,48.00
2019-05-25T10:24:25.416Z,47.40
2019-05-25T10:26:56.071Z,48.80
2019-05-25T10:29:36.534Z,49.90
2019-05-25T10:32:00.085Z,49.40
2019-05-25T10:34:31.205Z,48.70
2019-05-25T10:37:01.863Z,49.10
2019-05-25T10:39:32.835Z,51.10
2019-05-25T10:42:04.424Z,50.00
2019-05-25T10:44:35.052Z,50.10
2019-05-25T10:47:05.821Z,50.10
2019-05-25T10:49:36.958Z,50.10
2019-05-25T10:52:08.129Z,51.50
2019-05-25T10:54:39.090Z,51.50
2019-05-25T10:57:13.078Z,50.90
2019-05-25T10:59:52.498Z,51.30
2019-05-25T11:02:14.553Z,50.00
2019-05-25T11:04:45.158Z,49.80
2019-05-25T11:07:15.701Z,50.00
2019-05-25T11:09:46.341Z,51.80
2019-05-25T11:12:17.595Z,50.60
2019-05-25T11:14:48.573Z,50.00
2019-05-25T11:17:20.129Z,51.40
2019-05-25T11:19:50.908Z,49.80
2019-05-25T11:22:21.523Z,50.00
2019-05-25T11:24:53.339Z,52.30
2019-05-25T11:27:24.173Z,49.80
2019-05-25T11:30:07.832Z,50.00
2019-05-25T11:32:27.233Z,50.60
2019-05-25T11:34:58.173Z,50.80
2019-05-25T11:37:29.030Z,49.30
2019-05-25T11:39:59.835Z,49.50
2019-05-25T11:42:30.562Z,50.70
2019-05-25T11:45:01.084Z,52.40
2019-05-25T11:47:32.006Z,51.70
2019-05-25T11:50:02.696Z,51.30
2019-05-25T11:52:34.438Z,50.20
2019-05-25T11:55:05.738Z,50.70
2019-05-25T11:57:36.706Z,50.30
2019-05-25T12:00:23.739Z,50.50
2019-05-25T12:02:41.492Z,49.20
2019-05-25T12:05:13.368Z,49.40
2019-05-25T12:07:45.023Z,49.20
2019-05-25T12:10:17.134Z,48.90
2019-05-25T12:12:47.991Z,50.20
2019-05-25T12:15:19.143Z,50.60
2019-05-25T12:17:50.272Z,50.10
2019-05-25T12:20:21.341Z,48.50
2019-05-25T12:22:52.692Z,49.90
2019-05-25T12:25:23.388Z,50.10
2019-05-25T12:27:54.247Z,49.50
2019-05-25T12:30:39.660Z,48.70
2019-05-25T12:32:58.011Z,49.10
2019-05-25T12:35:28.807Z,50.10
2019-05-25T12:37:59.896Z,50.70
2019-05-25T12:40:30.412Z,49.60
2019-05-25T12:43:01.175Z,49.50
2019-05-25T12:45:32.582Z,50.40
2019-05-25T12:48:03.455Z,51.90
2019-05-25T12:50:34.339Z,50.90
2019-05-25T12:53:05.014Z,50.30
2019-05-25T12:55:35.691Z,51.40
2019-05-25T12:58:06.368Z,51.60
2019-05-25T13:00:37.363Z,52.70
2019-05-25T13:03:10.910Z,51.90
2019-05-25T13:05:40.067Z,51.30
2019-05-25T13:08:10.780Z,51.00
2019-05-25T13:10:41.672Z,51.30
2019-05-25T13:13:12.296Z,51.60
2019-05-25T13:15:43.117Z,50.90
2019-05-25T13:18:14.171Z,50.00
2019-05-25T13:20:45.016Z,51.40
2019-05-25T13:23:15.582Z,51.00
2019-05-25T13:25:46.194Z,51.80
2019-05-25T13:28:16.955Z,50.60
2019-05-25T13:30:47.919Z,51.90
2019-05-25T13:33:18.552Z,52.70
2019-05-25T13:35:49.381Z,50.00
2019-05-25T13:38:20.012Z,49.90
2019-05-25T13:40:52.716Z,51.10
2019-05-25T13:43:23.747Z,51.50
2019-05-25T13:45:54.666Z,51.70
2019-05-25T13:48:25.298Z,52.80
2019-05-25T13:50:56.251Z,50.70
2019-05-25T13:53:27.955Z,51.70
2019-05-25T13:55:58.745Z,52.10
2019-05-25T13:58:29.510Z,51.60
2019-05-25T14:01:01.357Z,51.90
2019-05-25T14:03:32.081Z,51.50
2019-05-25T14:06:03.018Z,51.30
2019-05-25T14:08:34.061Z,51.60
2019-05-25T14:11:04.857Z,51.00
2019-05-25T14:13:35.745Z,52.30
2019-05-25T14:16:07.551Z,53.30
2019-05-25T14:18:38.435Z,52.70
2019-05-25T14:21:09.217Z,52.80
2019-05-25T14:23:39.992Z,52.50
2019-05-25T14:26:11.126Z,52.00
2019-05-25T14:28:41.968Z,50.90
2019-05-25T14:31:12.874Z,51.60
2019-05-25T14:33:43.662Z,52.40
2019-05-25T14:36:14.892Z,52.80
2019-05-25T14:38:46.215Z,52.90
2019-05-25T14:41:19.716Z,52.00
2019-05-25T14:43:50.294Z,51.50
2019-05-25T14:46:27.757Z,52.50
2019-05-25T14:48:53.277Z,51.90
2019-05-25T14:51:24.234Z,51.70
2019-05-25T14:53:55.098Z,52.40
2019-05-25T14:56:26.170Z,51.50
2019-05-25T14:58:56.862Z,51.00
2019-05-25T15:01:27.870Z,50.80
2019-05-25T15:03:59.236Z,52.10
2019-05-25T15:06:30.371Z,52.40
2019-05-25T15:09:01.061Z,52.40
2019-05-25T15:11:32.610Z,52.10
2019-05-25T15:14:03.610Z,52.10
2019-05-25T15:16:34.237Z,53.20
2019-05-25T15:19:05.509Z,53.70
2019-05-25T15:21:36.751Z,53.60
2019-05-25T15:24:08.060Z,53.50
2019-05-25T15:26:38.770Z,54.60
2019-05-25T15:29:11.472Z,55.20
2019-05-25T15:31:42.907Z,55.50
2019-05-25T15:34:13.486Z,55.40
2019-05-25T15:36:44.041Z,55.00
2019-05-25T15:39:14.659Z,55.60
2019-05-25T15:41:45.858Z,55.80
2019-05-25T15:44:16.421Z,55.10
2019-05-25T15:46:47.200Z,56.30
2019-05-25T15:49:17.797Z,56.60
2019-05-25T15:51:48.580Z,55.50
2019-05-25T15:54:19.726Z,56.70
2019-05-25T15:56:50.475Z,57.10
2019-05-25T15:59:23.681Z,55.50
2019-05-25T16:01:53.864Z,56.40
2019-05-25T16:04:24.680Z,56.40
2019-05-25T16:06:55.474Z,56.30
2019-05-25T16:09:26.191Z,56.70
2019-05-25T16:11:57.128Z,57.50
2019-05-25T16:14:27.896Z,56.90
2019-05-25T16:16:58.533Z,57.20
2019-05-25T16:19:29.384Z,58.00
2019-05-25T16:22:00.381Z,58.10
2019-05-25T16:24:31.251Z,59.40
2019-05-25T16:27:01.805Z,59.80
2019-05-25T16:29:32.700Z,60.50
2019-05-25T16:32:03.435Z,61.40
2019-05-25T16:34:34.177Z,61.30
2019-05-25T16:37:04.857Z,61.40
2019-05-25T16:39:35.505Z,61.60
2019-05-25T16:42:06.184Z,62.00
2019-05-25T16:44:37.017Z,61.60
2019-05-25T16:47:07.782Z,62.30
2019-05-25T16:49:38.497Z,62.40
2019-05-25T16:52:09.273Z,62.60
2019-05-25T16:54:40.167Z,63.20
2019-05-25T16:57:11.036Z,62.20
2019-05-25T16:59:41.824Z,59.60
2019-05-25T17:02:12.823Z,59.50
2019-05-25T17:04:44.056Z,58.90
2019-05-25T17:07:15.016Z,59.20
2019-05-25T17:09:46.048Z,59.70
2019-05-25T17:12:16.797Z,61.10
2019-05-25T17:14:47.590Z,61.30
2019-05-25T17:17:18.019Z,61.20
2019-05-25T17:19:48.889Z,61.50
2019-05-25T17:22:19.422Z,62.30
2019-05-25T17:24:50.084Z,63.00
2019-05-25T17:27:21.352Z,63.40
2019-05-25T17:29:52.087Z,63.90
2019-05-25T17:32:22.569Z,64.20
2019-05-25T17:34:53.337Z,64.90
2019-05-25T17:37:24.291Z,64.60
2019-05-25T17:39:54.789Z,65.00
2019-05-25T17:42:25.683Z,66.20
2019-05-25T17:44:56.290Z,66.50
2019-05-25T17:47:27.268Z,66.30
2019-05-25T17:49:58.115Z,69.80
2019-05-25T17:52:28.558Z,71.10
2019-05-25T17:54:59.062Z,72.40
2019-05-25T17:57:30.019Z,71.50
2019-05-25T18:00:00.615Z,72.00
2019-05-25T18:02:31.538Z,72.90
2019-05-25T18:05:02.207Z,73.30
2019-05-25T18:07:32.926Z,74.00
2019-05-25T18:10:03.672Z,74.30
2019-05-25T18:12:34.563Z,74.90
2019-05-25T18:15:06.151Z,75.60
2019-05-25T18:17:37.029Z,77.30
2019-05-25T18:20:08.086Z,77.90
2019-05-25T18:22:40.261Z,79.20
2019-05-25T18:25:13.043Z,78.30
2019-05-25T18:27:43.912Z,78.70
2019-05-25T18:30:14.801Z,79.60
2019-05-25T18:32:45.643Z,78.80
2019-05-25T18:35:16.540Z,78.20
2019-05-25T18:37:47.413Z,79.00
2019-05-25T18:40:18.180Z,80.20
2019-05-25T18:42:49.092Z,81.90
2019-05-25T18:45:20.521Z,82.10
2019-05-25T18:47:52.632Z,84.10
2019-05-25T18:50:23.319Z,83.90
2019-05-25T18:52:54.701Z,82.00
2019-05-25T18:55:25.800Z,82.40
2019-05-25T18:57:56.402Z,85.20
2019-05-25T19:00:27.734Z,86.60
2019-05-25T19:02:58.650Z,86.20
2019-05-25T19:05:29.125Z,85.90
2019-05-25T19:07:59.809Z,85.10
2019-05-25T19:10:30.434Z,85.00
2019-05-25T19:13:00.954Z,85.10
2019-05-25T19:15:31.816Z,85.30
2019-05-25T19:18:02.828Z,86.00
2019-05-25T19:20:33.686Z,86.70
2019-05-25T19:23:04.227Z,87.00
2019-05-25T19:25:34.787Z,87.30
2019-05-25T19:28:05.645Z,88.10
2019-05-25T19:30:36.390Z,88.70
2019-05-25T19:33:07.284Z,89.60
2019-05-25T19:35:38.207Z,90.30
2019-05-25T19:38:09.278Z,90.80
2019-05-25T19:40:39.877Z,91.20
2019-05-25T19:43:10.941Z,91.50
2019-05-25T19:45:41.851Z,91.80
2019-05-25T19:48:12.892Z,92.30
2019-05-25T19:50:43.931Z,92.10
2019-05-25T19:53:14.943Z,92.50
2019-05-25T19:55:47.713Z,92.70
2019-05-25T19:58:18.418Z,92.90
2019-05-25T20:00:49.017Z,93.00
2019-05-25T20:03:20.122Z,93.10
2019-05-25T20:05:51.112Z,93.40
2019-05-25T20:08:21.767Z,93.40
2019-05-25T20:10:55.448Z,93.70
2019-05-25T20:13:24.572Z,93.90
2019-05-25T20:15:55.506Z,94.20
2019-05-25T20:18:26.091Z,94.30
2019-05-25T20:20:57.307Z,94.50
2019-05-25T20:23:28.368Z,94.80
2019-05-25T20:25:58.940Z,94.70
2019-05-25T20:28:29.635Z,94.90
2019-05-25T20:31:00.698Z,95.00
2019-05-25T20:33:34.666Z,95.10
2019-05-25T20:36:03.542Z,95.50
2019-05-25T20:38:33.951Z,95.30
2019-05-25T20:41:04.633Z,95.40
2019-05-25T20:43:35.268Z,95.70
2019-05-25T20:46:07.601Z,95.80
2019-05-25T20:48:38.368Z,95.90
2019-05-25T20:51:09.282Z,96.10
2019-05-25T20:53:40.008Z,96.00
2019-05-25T20:56:12.223Z,96.00
2019-05-25T20:58:42.873Z,96.10
2019-05-25T21:01:13.533Z,96.30
2019-05-25T21:03:44.183Z,96.30
2019-05-25T21:06:14.855Z,96.40
2019-05-25T21:08:45.502Z,96.50
2019-05-25T21:11:15.982Z,96.70
2019-05-25T21:13:46.499Z,96.80
2019-05-25T21:16:17.188Z,96.90
2019-05-25T21:18:47.802Z,97.00
2019-05-25T21:21:18.588Z,97.00
2019-05-25T21:23:49.244Z,97.00
2019-05-25T21:26:19.976Z,97.10
2019-05-25T21:28:50.620Z,97.30
2019-05-25T21:31:23.738Z,97.50
2019-05-25T21:33:53.276Z,97.60
2019-05-25T21:36:23.852Z,97.60
2019-05-25T21:38:54.442Z,97.50
2019-05-25T21:41:25.029Z,97.50
2019-05-25T21:43:55.960Z,97.50
2019-05-25T21:46:26.586Z,97.60
2019-05-25T21:48:57.305Z,97.60
2019-05-25T21:51:27.978Z,97.60
2019-05-25T21:53:59.075Z,97.50
2019-05-25T21:56:29.809Z,97.60
2019-05-25T21:59:00.298Z,97.60
2019-05-25T22:01:31.178Z,97.70
2019-05-25T22:04:02.177Z,97.80
2019-05-25T22:06:33.997Z,97.80
2019-05-25T22:09:05.754Z,97.80
2019-05-25T22:11:36.427Z,97.80
2019-05-25T22:14:08.023Z,97.80
2019-05-25T22:16:38.680Z,97.80
2019-05-25T22:19:09.258Z,97.80
2019-05-25T22:21:40.115Z,97.80
2019-05-25T22:24:10.839Z,97.80
2019-05-25T22:26:41.567Z,97.80
2019-05-25T22:29:12.645Z,97.80
2019-05-25T22:31:43.309Z,98.00
2019-05-25T22:34:13.914Z,97.90
2019-05-25T22:36:44.873Z,98.00
2019-05-25T22:39:15.983Z,98.00
2019-05-25T22:41:47.122Z,97.90
2019-05-25T22:44:17.974Z,97.90
2019-05-25T22:46:48.646Z,98.00
2019-05-25T22:49:19.339Z,98.10
2019-05-25T22:51:50.100Z,98.10
2019-05-25T22:54:20.616Z,98.30
2019-05-25T22:56:51.446Z,98.40
2019-05-25T22:59:21.994Z,98.40
2019-05-25T23:01:52.701Z,98.40
2019-05-25T23:04:23.159Z,98.30
2019-05-25T23:06:58.210Z,98.20
2019-05-25T23:09:26.196Z,98.20
2019-05-25T23:11:56.751Z,98.10
2019-05-25T23:14:27.810Z,98.10
2019-05-25T23:17:00.232Z,98.30
2019-05-25T23:19:31.022Z,98.20
2019-05-25T23:22:01.734Z,98.10
2019-05-25T23:24:33.329Z,98.30
2019-05-25T23:27:04.140Z,98.30
2019-05-25T23:29:34.839Z,98.30
2019-05-25T23:32:05.726Z,98.40
2019-05-25T23:34:36.531Z,98.20
2019-05-25T23:37:14.618Z,98.10
2019-05-25T23:39:39.535Z,98.10
2019-05-25T23:42:10.398Z,98.10
2019-05-25T23:44:41.004Z,98.00
2019-05-25T23:47:11.801Z,97.70
2019-05-25T23:49:43.545Z,98.00
2019-05-25T23:52:14.198Z,97.50
2019-05-25T23:54:45.465Z,97.70
2019-05-25T23:57:16.011Z,98.00
2019-05-25T23:59:47.751Z,98.20
